Terminal Aerodrome Forecast
Issued by NWS Buffalo, NY

Home | Current Version | Previous Version | Text Only | Print | Product List | Glossary On
Versions: 1 2 3 4 5 6 7 8 9 10 11 12 13 14 15 16 17 18 19 20 21 22 23 24 25
742
FTUS41 KBUF 040539
TAFROC
TAF
KROC 040539Z 0406/0506 32006KT P6SM VCSH SCT025 OVC040
     FM041200 31004KT P6SM BKN040
     FM041800 VRB04KT P6SM BKN050
     FM042100 08006KT P6SM SCT100 BKN250
     FM050500 15065KT 2SM -SN OVC025=

USA.gov is the U.S. government's official web portal to all federal, state and local government web resources and services.